createdAt,value
2019-03-21T00:02:05.060Z,113.55
2019-03-21T00:04:31.383Z,105.43
2019-03-21T00:06:57.637Z,112.52
2019-03-21T00:09:23.872Z,123.45
2019-03-21T00:12:00.639Z,110.25
2019-03-21T00:14:48.280Z,124.62
2019-03-21T00:17:27.808Z,102.62
2019-03-21T00:19:54.103Z,120.28
2019-03-21T00:22:20.320Z,108.92
2019-03-21T00:24:46.776Z,117.75
2019-03-21T00:27:13.060Z,105.20
2019-03-21T00:29:39.310Z,119.30
2019-03-21T00:32:05.569Z,126.27
2019-03-21T00:34:31.947Z,122.72
2019-03-21T00:36:58.308Z,116.33
2019-03-21T00:39:32.386Z,128.25
2019-03-21T00:41:52.793Z,132.12
2019-03-21T00:44:19.051Z,115.05
2019-03-21T00:46:45.357Z,119.80
2019-03-21T00:49:11.626Z,120.82
2019-03-21T00:51:37.860Z,124.60
2019-03-21T00:54:04.442Z,120.30
2019-03-21T00:56:31.067Z,120.95
2019-03-21T00:58:57.329Z,112.92
2019-03-21T01:01:23.551Z,112.95
2019-03-21T01:03:50.029Z,111.60
2019-03-21T01:06:16.519Z,115.82
2019-03-21T01:08:42.786Z,108.72
2019-03-21T01:11:09.025Z,119.00
2019-03-21T01:13:39.812Z,120.37
2019-03-21T01:16:06.419Z,119.00
2019-03-21T01:18:35.898Z,113.70
2019-03-21T01:21:02.261Z,118.15
2019-03-21T01:23:28.613Z,111.72
2019-03-21T01:26:07.304Z,105.78
2019-03-21T01:28:33.651Z,113.95
2019-03-21T01:31:00.403Z,114.95
2019-03-21T01:33:26.667Z,108.12
2019-03-21T01:35:52.936Z,107.12
2019-03-21T01:38:19.219Z,115.97
2019-03-21T01:40:51.730Z,119.75
2019-03-21T01:43:18.811Z,103.30
2019-03-21T01:45:45.067Z,121.77
2019-03-21T01:48:11.376Z,115.37
2019-03-21T01:50:38.818Z,101.65
2019-03-21T01:53:05.205Z,116.33
2019-03-21T01:55:31.710Z,114.00
2019-03-21T01:57:58.086Z,116.47
2019-03-21T02:00:51.011Z,108.67
2019-03-21T02:03:17.288Z,116.30
2019-03-21T02:06:03.516Z,114.22
2019-03-21T02:08:29.795Z,121.25
2019-03-21T02:10:56.042Z,120.05
2019-03-21T02:13:22.463Z,122.87
2019-03-21T02:15:50.783Z,115.37
2019-03-21T02:18:17.042Z,118.10
2019-03-21T02:20:43.281Z,114.17
2019-03-21T02:23:09.559Z,117.93
2019-03-21T02:25:38.239Z,114.28
2019-03-21T02:28:04.737Z,107.97
2019-03-21T02:30:39.789Z,107.45
2019-03-21T02:33:21.780Z,117.77
2019-03-21T02:35:48.064Z,106.72
2019-03-21T02:38:14.308Z,108.42
2019-03-21T02:40:42.509Z,113.40
2019-03-21T02:43:08.884Z,107.03
2019-03-21T02:45:35.123Z,106.55
2019-03-21T02:48:01.408Z,109.25
2019-03-21T02:50:32.598Z,116.30
2019-03-21T02:52:58.925Z,115.60
2019-03-21T02:55:25.423Z,109.42
2019-03-21T02:57:51.792Z,95.70
2019-03-21T03:00:24.791Z,111.45
2019-03-21T03:02:53.460Z,103.07
2019-03-21T03:05:23.020Z,101.35
2019-03-21T03:07:49.278Z,109.45
2019-03-21T03:10:22.281Z,104.63
2019-03-21T03:12:48.560Z,95.67
2019-03-21T03:15:23.086Z,101.20
2019-03-21T03:17:46.512Z,108.87
2019-03-21T03:20:15.468Z,107.72
2019-03-21T03:22:41.723Z,99.95
2019-03-21T03:25:14.032Z,109.03
2019-03-21T03:27:40.811Z,104.58
2019-03-21T03:30:10.869Z,102.07
2019-03-21T03:32:37.288Z,100.35
2019-03-21T03:35:07.045Z,109.27
2019-03-21T03:37:33.386Z,107.15
2019-03-21T03:39:59.677Z,93.55
2019-03-21T03:42:26.011Z,100.47
2019-03-21T03:44:52.397Z,94.35
2019-03-21T03:47:18.776Z,105.90
2019-03-21T03:49:45.020Z,113.83
2019-03-21T03:52:11.287Z,105.17
2019-03-21T03:54:37.670Z,103.42
2019-03-21T03:57:04.086Z,107.25
2019-03-21T03:59:30.303Z,109.00
2019-03-21T04:01:56.560Z,109.42
2019-03-21T04:04:22.896Z,99.97
2019-03-21T04:06:49.337Z,103.80
2019-03-21T04:09:15.777Z,105.78
2019-03-21T04:11:42.299Z,105.05
2019-03-21T04:14:08.708Z,97.25
2019-03-21T04:16:34.947Z,89.03
2019-03-21T04:19:01.197Z,97.15
2019-03-21T04:21:27.577Z,88.87
2019-03-21T04:23:53.863Z,99.70
2019-03-21T04:26:26.611Z,102.20
2019-03-21T04:28:53.118Z,86.35
2019-03-21T04:31:19.361Z,97.67
2019-03-21T04:33:47.218Z,93.27
2019-03-21T04:36:13.725Z,96.80
2019-03-21T04:38:40.074Z,101.15
2019-03-21T04:41:06.345Z,98.12
2019-03-21T04:43:32.567Z,99.90
2019-03-21T04:46:03.291Z,96.55
2019-03-21T04:48:27.070Z,92.25
2019-03-21T04:50:53.369Z,93.07
2019-03-21T04:53:19.661Z,92.70
2019-03-21T04:55:45.924Z,90.83
2019-03-21T04:58:12.202Z,93.40
2019-03-21T05:00:44.387Z,86.28
2019-03-21T05:03:12.967Z,90.62
2019-03-21T05:05:39.303Z,91.12
2019-03-21T05:08:05.584Z,84.85
2019-03-21T05:10:31.877Z,86.25
2019-03-21T05:12:58.111Z,75.60
2019-03-21T05:15:28.238Z,68.30
2019-03-21T05:17:57.895Z,69.40
2019-03-21T05:20:26.802Z,62.95
2019-03-21T05:22:53.170Z,57.08
2019-03-21T05:25:19.519Z,63.05
2019-03-21T05:27:45.897Z,58.13
2019-03-21T05:30:38.543Z,59.73
2019-03-21T05:33:05.081Z,64.87
2019-03-21T05:35:31.645Z,63.00
2019-03-21T05:37:58.059Z,68.15
2019-03-21T05:40:24.429Z,64.25
2019-03-21T05:42:57.440Z,60.30
2019-03-21T05:45:23.710Z,66.07
2019-03-21T05:47:49.968Z,62.80
2019-03-21T05:50:16.535Z,64.72
2019-03-21T05:52:42.767Z,67.12
2019-03-21T05:55:10.606Z,66.30
2019-03-21T05:57:37.317Z,62.43
2019-03-21T06:00:13.406Z,73.65
2019-03-21T06:02:39.795Z,75.03
2019-03-21T06:05:06.240Z,71.92
2019-03-21T06:07:35.019Z,75.78
2019-03-21T06:10:01.925Z,73.00
2019-03-21T06:12:28.145Z,72.87
2019-03-21T06:14:58.065Z,73.20
2019-03-21T06:17:24.484Z,73.33
2019-03-21T06:19:54.581Z,73.28
2019-03-21T06:22:30.564Z,77.47
2019-03-21T06:25:15.776Z,78.70
2019-03-21T06:27:40.597Z,77.65
2019-03-21T06:30:07.554Z,77.45
2019-03-21T06:32:33.823Z,81.32
2019-03-21T06:35:00.331Z,75.72
2019-03-21T06:37:28.640Z,73.35
2019-03-21T06:39:54.988Z,73.00
2019-03-21T06:42:21.250Z,71.95
2019-03-21T06:44:47.502Z,66.77
2019-03-21T06:47:13.918Z,74.25
2019-03-21T06:49:40.374Z,71.37
2019-03-21T06:52:06.763Z,73.52
2019-03-21T06:54:33.111Z,75.75
2019-03-21T06:57:02.426Z,73.90
2019-03-21T06:59:30.877Z,75.12
2019-03-21T07:01:57.162Z,75.22
2019-03-21T07:04:23.407Z,76.70
2019-03-21T07:06:49.704Z,70.83
2019-03-21T07:09:15.945Z,77.92
2019-03-21T07:11:42.220Z,72.97
2019-03-21T07:14:08.846Z,70.87
2019-03-21T07:16:35.124Z,68.75
2019-03-21T07:19:01.365Z,71.60
2019-03-21T07:21:27.908Z,68.00
2019-03-21T07:23:54.258Z,67.35
2019-03-21T07:26:20.642Z,64.92
2019-03-21T07:28:46.920Z,69.62
2019-03-21T07:31:13.177Z,61.25
2019-03-21T07:33:39.470Z,66.53
2019-03-21T07:36:05.757Z,66.42
2019-03-21T07:38:32.007Z,58.48
2019-03-21T07:40:58.243Z,64.35
2019-03-21T07:43:24.550Z,60.45
2019-03-21T07:45:50.771Z,63.42
2019-03-21T07:48:17.224Z,61.15
2019-03-21T07:50:43.466Z,63.65
2019-03-21T07:53:09.738Z,61.75
2019-03-21T07:55:36.286Z,68.10
2019-03-21T07:58:02.796Z,65.03
2019-03-21T08:00:29.158Z,64.77
2019-03-21T08:02:55.552Z,65.50
2019-03-21T08:05:21.924Z,64.92
2019-03-21T08:07:48.213Z,63.02
2019-03-21T08:10:14.820Z,67.00
2019-03-21T08:12:41.494Z,60.17
2019-03-21T08:15:10.558Z,65.45
2019-03-21T08:17:36.805Z,62.85
2019-03-21T08:20:11.804Z,65.55
2019-03-21T08:22:38.205Z,57.62
2019-03-21T08:25:06.343Z,56.42
2019-03-21T08:27:32.759Z,55.55
2019-03-21T08:29:59.032Z,54.25
2019-03-21T08:32:25.305Z,53.50
2019-03-21T08:34:51.641Z,50.67
2019-03-21T08:37:18.300Z,49.85
2019-03-21T08:39:44.723Z,46.20
2019-03-21T08:42:11.064Z,42.83
2019-03-21T08:44:37.330Z,46.90
2019-03-21T08:47:03.839Z,42.15
2019-03-21T08:49:30.107Z,43.33
2019-03-21T08:51:56.478Z,44.08
2019-03-21T08:54:22.838Z,45.48
2019-03-21T08:56:49.145Z,38.30
2019-03-21T08:59:19.177Z,47.10
2019-03-21T09:01:45.579Z,42.00
2019-03-21T09:04:12.060Z,40.85
2019-03-21T09:06:38.350Z,42.60
2019-03-21T09:09:06.599Z,43.63
2019-03-21T09:11:32.850Z,47.58
2019-03-21T09:13:59.119Z,43.95
2019-03-21T09:16:25.406Z,46.80
2019-03-21T09:18:51.661Z,47.50
2019-03-21T09:21:19.955Z,49.42
2019-03-21T09:23:46.258Z,50.40
2019-03-21T09:26:12.704Z,47.40
2019-03-21T09:28:38.988Z,47.65
2019-03-21T09:31:05.239Z,43.33
2019-03-21T09:33:31.623Z,41.60
2019-03-21T09:35:57.866Z,43.00
2019-03-21T09:38:24.175Z,45.10
2019-03-21T09:40:50.535Z,49.10
2019-03-21T09:43:16.766Z,41.73
2019-03-21T09:45:43.034Z,43.58
2019-03-21T09:48:09.525Z,42.33
2019-03-21T09:50:36.102Z,42.10
2019-03-21T09:53:02.547Z,40.75
2019-03-21T09:55:28.907Z,43.28
2019-03-21T09:57:55.395Z,39.15
2019-03-21T10:00:32.429Z,41.48
2019-03-21T10:02:59.259Z,38.73
2019-03-21T10:05:25.707Z,39.50
2019-03-21T10:07:52.112Z,42.73
2019-03-21T10:10:27.023Z,38.60
2019-03-21T10:13:13.231Z,39.95
2019-03-21T10:15:39.616Z,44.65
2019-03-21T10:18:06.012Z,41.28
2019-03-21T10:20:32.378Z,43.85
2019-03-21T10:22:58.953Z,42.60
2019-03-21T10:25:26.690Z,41.77
2019-03-21T10:27:53.332Z,40.35
2019-03-21T10:30:37.084Z,42.03
2019-03-21T10:33:05.197Z,42.48
2019-03-21T10:35:32.665Z,43.20
2019-03-21T10:37:59.349Z,44.58
2019-03-21T10:40:25.756Z,43.02
2019-03-21T10:42:52.179Z,43.40
2019-03-21T10:45:18.564Z,42.95
2019-03-21T10:47:45.085Z,43.33
2019-03-21T10:50:15.193Z,40.95
2019-03-21T10:52:41.449Z,42.58
2019-03-21T10:55:08.004Z,39.85
2019-03-21T10:57:34.278Z,43.78
2019-03-21T11:00:01.863Z,40.38
2019-03-21T11:02:48.744Z,45.23
2019-03-21T11:05:15.326Z,43.15
2019-03-21T11:07:41.573Z,44.08
2019-03-21T11:10:08.032Z,44.15
2019-03-21T11:12:34.329Z,41.13
2019-03-21T11:15:00.680Z,41.02
2019-03-21T11:17:27.174Z,43.42
2019-03-21T11:19:53.541Z,42.62
2019-03-21T11:22:20.080Z,41.95
2019-03-21T11:24:46.374Z,39.83
2019-03-21T11:27:12.662Z,45.05
2019-03-21T11:29:38.948Z,42.15
2019-03-21T11:32:05.325Z,38.98
2019-03-21T11:34:31.632Z,43.65
2019-03-21T11:36:57.897Z,43.85
2019-03-21T11:39:24.123Z,44.05
2019-03-21T11:41:50.781Z,41.70
2019-03-21T11:44:17.009Z,38.55
2019-03-21T11:46:43.387Z,39.70
2019-03-21T11:49:09.672Z,41.28
2019-03-21T11:51:36.179Z,37.15
2019-03-21T11:54:02.686Z,39.80
2019-03-21T11:56:28.989Z,37.10
2019-03-21T11:58:55.286Z,37.83
2019-03-21T12:01:21.785Z,39.55
2019-03-21T12:03:48.245Z,39.78
2019-03-21T12:06:14.698Z,38.30
2019-03-21T12:08:41.116Z,36.60
2019-03-21T12:11:07.362Z,39.90
2019-03-21T12:13:33.608Z,38.95
2019-03-21T12:16:00.063Z,36.10
2019-03-21T12:18:26.474Z,35.80
2019-03-21T12:20:52.794Z,36.55
2019-03-21T12:23:19.066Z,36.93
2019-03-21T12:25:45.467Z,32.40
2019-03-21T12:28:11.782Z,33.30
2019-03-21T12:30:39.094Z,30.88
2019-03-21T12:33:05.591Z,29.90
2019-03-21T12:35:32.028Z,32.63
2019-03-21T12:37:58.546Z,28.27
2019-03-21T12:40:24.952Z,29.72
2019-03-21T12:42:51.448Z,29.95
2019-03-21T12:45:17.724Z,26.68
2019-03-21T12:47:43.985Z,26.60
2019-03-21T12:50:10.683Z,27.30
2019-03-21T12:53:37.202Z,23.83
2019-03-21T12:55:05.873Z,23.47
2019-03-21T12:57:32.287Z,28.35
2019-03-21T12:59:58.521Z,22.85
2019-03-21T13:02:32.215Z,25.15
2019-03-21T13:04:53.279Z,26.97
2019-03-21T13:07:20.051Z,27.95
2019-03-21T13:09:46.977Z,25.05
2019-03-21T13:12:13.462Z,25.20
2019-03-21T13:14:39.856Z,24.98
2019-03-21T13:17:06.206Z,24.35
2019-03-21T13:19:32.515Z,26.48
2019-03-21T13:21:58.745Z,25.40
2019-03-21T13:24:24.988Z,24.77
2019-03-21T13:26:51.268Z,25.40
2019-03-21T13:29:17.570Z,26.50
2019-03-21T13:31:43.912Z,26.48
2019-03-21T13:34:10.332Z,24.70
2019-03-21T13:36:36.566Z,27.32
2019-03-21T13:39:05.626Z,25.95
2019-03-21T13:41:31.924Z,26.90
2019-03-21T13:43:58.378Z,27.32
2019-03-21T13:46:24.757Z,25.92
2019-03-21T13:48:51.245Z,29.15
2019-03-21T13:51:17.650Z,31.17
2019-03-21T13:53:44.009Z,26.60
2019-03-21T13:56:10.419Z,25.48
2019-03-21T13:58:36.808Z,26.23
2019-03-21T14:01:03.259Z,25.20
2019-03-21T14:03:29.855Z,29.15
2019-03-21T14:05:56.098Z,27.52
2019-03-21T14:08:22.637Z,28.15
2019-03-21T14:10:49.110Z,27.62
2019-03-21T14:13:15.380Z,27.62
2019-03-21T14:15:41.561Z,32.95
2019-03-21T14:18:07.910Z,28.10
2019-03-21T14:20:34.160Z,27.80
2019-03-21T14:23:00.676Z,27.80
2019-03-21T14:25:26.950Z,27.05
2019-03-21T14:27:53.288Z,27.80
2019-03-21T14:30:19.785Z,26.73
2019-03-21T14:32:46.043Z,28.02
2019-03-21T14:35:12.978Z,28.27
2019-03-21T14:37:39.348Z,28.07
2019-03-21T14:40:09.162Z,27.67
2019-03-21T14:42:35.578Z,27.35
2019-03-21T14:45:04.866Z,28.10
2019-03-21T14:47:36.108Z,27.77
2019-03-21T14:49:59.226Z,26.75
2019-03-21T14:52:25.567Z,28.70
2019-03-21T14:54:52.035Z,28.15
2019-03-21T14:57:18.278Z,26.85
2019-03-21T14:59:44.626Z,25.00
2019-03-21T15:02:11.066Z,27.75
2019-03-21T15:04:37.345Z,26.37
2019-03-21T15:07:03.734Z,27.80
2019-03-21T15:09:30.012Z,28.75
2019-03-21T15:11:56.535Z,27.90
2019-03-21T15:14:23.023Z,27.82
2019-03-21T15:16:49.432Z,29.87
2019-03-21T15:19:15.925Z,31.05
2019-03-21T15:21:42.191Z,32.83
2019-03-21T15:24:08.514Z,31.23
2019-03-21T15:26:34.923Z,27.50
2019-03-21T15:29:01.199Z,29.98
2019-03-21T15:31:27.533Z,30.02
2019-03-21T15:33:53.979Z,27.70
2019-03-21T15:36:20.240Z,31.57
2019-03-21T15:38:46.645Z,31.55
2019-03-21T15:41:12.927Z,30.12
2019-03-21T15:43:39.425Z,29.77
2019-03-21T15:46:06.716Z,29.55
2019-03-21T15:48:33.155Z,30.00
2019-03-21T15:51:04.666Z,25.02
2019-03-21T15:53:27.807Z,31.35
2019-03-21T15:55:54.262Z,28.17
2019-03-21T15:58:20.621Z,31.23
2019-03-21T16:00:47.085Z,28.30
2019-03-21T16:03:13.617Z,28.30
2019-03-21T16:05:40.383Z,32.55
2019-03-21T16:08:08.893Z,30.20
2019-03-21T16:10:35.088Z,30.48
2019-03-21T16:13:01.622Z,28.55
2019-03-21T16:15:28.117Z,27.85
2019-03-21T16:17:54.491Z,29.92
2019-03-21T16:20:20.791Z,26.95
2019-03-21T16:22:47.323Z,29.60
2019-03-21T16:25:13.751Z,31.15
2019-03-21T16:27:40.143Z,28.35
2019-03-21T16:30:08.708Z,25.12
2019-03-21T16:32:34.981Z,27.65
2019-03-21T16:35:01.410Z,29.60
2019-03-21T16:37:27.758Z,30.00
2019-03-21T16:39:54.062Z,31.07
2019-03-21T16:42:20.487Z,30.15
2019-03-21T16:44:46.737Z,26.73
2019-03-21T16:47:13.143Z,27.15
2019-03-21T16:49:39.485Z,31.93
2019-03-21T16:52:05.962Z,29.95
2019-03-21T16:54:32.229Z,31.50
2019-03-21T16:56:58.543Z,31.10
2019-03-21T16:59:24.939Z,31.20
2019-03-21T17:01:51.302Z,30.37
2019-03-21T17:04:17.641Z,32.63
2019-03-21T17:06:43.886Z,32.40
2019-03-21T17:09:10.345Z,31.48
2019-03-21T17:11:36.739Z,30.23
2019-03-21T17:14:03.354Z,31.00
2019-03-21T17:16:29.705Z,29.10
2019-03-21T17:18:55.949Z,27.17
2019-03-21T17:21:22.229Z,31.37
2019-03-21T17:23:48.507Z,29.02
2019-03-21T17:26:15.994Z,28.83
2019-03-21T17:28:42.516Z,26.40
2019-03-21T17:31:08.792Z,29.20
2019-03-21T17:33:35.080Z,29.15
2019-03-21T17:36:01.410Z,29.23
2019-03-21T17:38:28.374Z,31.37
2019-03-21T17:40:54.733Z,30.77
2019-03-21T17:43:21.117Z,31.33
2019-03-21T17:45:47.523Z,29.18
2019-03-21T17:48:13.895Z,29.90
2019-03-21T17:50:42.318Z,30.75
2019-03-21T17:53:08.956Z,28.50
2019-03-21T17:55:35.282Z,31.70
2019-03-21T17:58:01.705Z,30.75
2019-03-21T18:00:29.932Z,29.20
2019-03-21T18:02:56.443Z,31.05
2019-03-21T18:05:22.791Z,33.40
2019-03-21T18:07:49.093Z,27.35
2019-03-21T18:10:27.463Z,32.85
2019-03-21T18:12:53.979Z,33.15
2019-03-21T18:15:20.361Z,31.52
2019-03-21T18:17:46.711Z,31.12
2019-03-21T18:20:12.970Z,31.90
2019-03-21T18:22:39.230Z,27.37
2019-03-21T18:25:05.745Z,34.55
2019-03-21T18:27:37.757Z,32.38
2019-03-21T18:30:05.963Z,31.73
2019-03-21T18:32:32.211Z,30.55
2019-03-21T18:34:58.704Z,31.70
2019-03-21T18:37:24.964Z,33.88
2019-03-21T18:39:51.455Z,30.40
2019-03-21T18:42:17.861Z,32.98
2019-03-21T18:44:44.337Z,35.50
2019-03-21T18:47:10.619Z,34.27
2019-03-21T18:49:37.063Z,34.70
2019-03-21T18:52:03.484Z,39.20
2019-03-21T18:54:29.886Z,35.50
2019-03-21T18:56:56.137Z,34.45
2019-03-21T18:59:22.584Z,32.63
2019-03-21T19:01:57.932Z,36.95
2019-03-21T19:04:17.070Z,42.10
2019-03-21T19:06:43.331Z,36.77
2019-03-21T19:09:09.596Z,32.45
2019-03-21T19:11:35.871Z,36.93
2019-03-21T19:14:02.465Z,35.35
2019-03-21T19:16:31.990Z,34.30
2019-03-21T19:18:57.794Z,35.68
2019-03-21T19:21:24.126Z,37.33
2019-03-21T19:23:50.923Z,37.98
2019-03-21T19:26:17.196Z,37.78
2019-03-21T19:28:43.859Z,35.88
2019-03-21T19:31:10.389Z,35.80
2019-03-21T19:33:36.993Z,33.98
2019-03-21T19:36:03.644Z,36.83
2019-03-21T19:38:30.080Z,31.70
2019-03-21T19:40:56.407Z,36.03
2019-03-21T19:43:22.799Z,33.38
2019-03-21T19:45:49.221Z,39.83
2019-03-21T19:48:15.748Z,40.60
2019-03-21T19:50:42.116Z,30.02
2019-03-21T19:53:08.731Z,34.98
2019-03-21T19:55:35.313Z,39.10
2019-03-21T19:58:01.991Z,37.95
2019-03-21T20:00:28.364Z,41.28
2019-03-21T20:02:54.803Z,41.20
2019-03-21T20:05:21.300Z,39.23
2019-03-21T20:07:47.713Z,45.12
2019-03-21T20:10:16.263Z,40.95
2019-03-21T20:12:42.705Z,48.98
2019-03-21T20:15:11.319Z,46.75
2019-03-21T20:17:37.685Z,47.03
2019-03-21T20:20:10.580Z,44.25
2019-03-21T20:22:37.438Z,43.33
2019-03-21T20:25:05.448Z,43.78
2019-03-21T20:27:31.746Z,46.40
2019-03-21T20:29:58.020Z,48.02
2019-03-21T20:32:24.889Z,45.78
2019-03-21T20:34:51.289Z,48.55
2019-03-21T20:37:17.680Z,46.35
2019-03-21T20:39:44.317Z,46.53
2019-03-21T20:42:10.656Z,44.98
2019-03-21T20:44:37.005Z,44.90
2019-03-21T20:47:03.571Z,46.20
2019-03-21T20:49:29.814Z,50.28
2019-03-21T20:51:56.337Z,46.58
2019-03-21T20:54:22.638Z,47.70
2019-03-21T20:56:49.060Z,47.67
2019-03-21T20:59:15.494Z,48.75
2019-03-21T21:01:42.141Z,49.80
2019-03-21T21:04:08.531Z,47.53
2019-03-21T21:06:35.927Z,49.40
2019-03-21T21:09:05.031Z,47.10
2019-03-21T21:11:31.344Z,48.60
2019-03-21T21:13:57.899Z,51.13
2019-03-21T21:16:24.209Z,47.00
2019-03-21T21:18:50.616Z,52.60
2019-03-21T21:21:17.709Z,51.10
2019-03-21T21:23:44.583Z,49.60
2019-03-21T21:26:10.973Z,50.30
2019-03-21T21:28:37.335Z,43.33
2019-03-21T21:31:03.897Z,44.03
2019-03-21T21:33:30.317Z,54.05
2019-03-21T21:35:56.715Z,51.83
2019-03-21T21:38:23.079Z,54.63
2019-03-21T21:40:49.342Z,54.80
2019-03-21T21:43:15.848Z,54.18
2019-03-21T21:45:42.221Z,56.25
2019-03-21T21:48:08.711Z,52.78
2019-03-21T21:50:35.052Z,58.20
2019-03-21T21:53:01.502Z,56.53
2019-03-21T21:55:27.803Z,54.33
2019-03-21T21:57:54.476Z,55.52
2019-03-21T22:00:21.086Z,51.45
2019-03-21T22:02:49.398Z,52.55
2019-03-21T22:05:15.960Z,48.15
2019-03-21T22:07:42.590Z,54.20
2019-03-21T22:10:10.312Z,51.28
2019-03-21T22:12:36.715Z,56.92
2019-03-21T22:15:09.383Z,50.05
2019-03-21T22:17:36.379Z,56.83
2019-03-21T22:20:04.306Z,53.23
2019-03-21T22:22:31.638Z,55.38
2019-03-21T22:24:58.240Z,49.30
2019-03-21T22:27:24.625Z,52.40
2019-03-21T22:29:50.863Z,55.52
2019-03-21T22:32:17.584Z,56.40
2019-03-21T22:34:43.884Z,57.75
2019-03-21T22:37:10.155Z,56.48
2019-03-21T22:39:36.449Z,59.30
2019-03-21T22:42:03.347Z,53.92
2019-03-21T22:44:29.580Z,56.37
2019-03-21T22:46:56.227Z,54.67
2019-03-21T22:49:22.516Z,54.00
2019-03-21T22:51:51.241Z,57.15
2019-03-21T22:54:16.911Z,56.92
2019-03-21T22:56:43.235Z,58.40
2019-03-21T22:59:09.707Z,49.48
2019-03-21T23:01:36.157Z,55.90
2019-03-21T23:04:03.001Z,50.25
2019-03-21T23:06:29.641Z,57.55
2019-03-21T23:08:56.121Z,56.60
2019-03-21T23:11:22.373Z,59.00
2019-03-21T23:13:48.753Z,51.83
2019-03-21T23:16:14.941Z,49.13
2019-03-21T23:18:41.881Z,52.08
2019-03-21T23:21:08.121Z,54.10
2019-03-21T23:23:34.417Z,57.33
2019-03-21T23:26:00.952Z,54.63
2019-03-21T23:28:27.260Z,54.48
2019-03-21T23:30:53.527Z,54.13
2019-03-21T23:33:19.939Z,54.15
2019-03-21T23:35:46.209Z,49.05
2019-03-21T23:38:12.492Z,52.62
2019-03-21T23:40:38.863Z,53.87
2019-03-21T23:43:05.138Z,52.08
2019-03-21T23:45:31.555Z,49.93
2019-03-21T23:47:57.879Z,46.45
2019-03-21T23:50:24.224Z,50.78
2019-03-21T23:52:50.498Z,50.12
2019-03-21T23:55:18.867Z,51.55
2019-03-21T23:57:45.229Z,53.28
